Time;durP1;ratioP1;P1;durP2;ratioP2;P2;SDS_P1;SDS_P2;PMS_P1;PMS_P2;Temp;Humidity;BMP_temperature;BMP_pressure;BME280_temperature;BME280_humidity;BME280_pressure;Samples;Min_cycle;Max_cycle;Signal;HPM_P1;HPM_P2
2023/01/03 00:01:07;;;;;;;18.92;17.59;;;;;;;6.51;76.98;101795.95;458140;116;930321;-77
2023/01/03 00:02:10;;;;;;;19.09;17.71;;;;;;;6.52;77.04;101791.38;457899;116;922135;-77
2023/01/03 00:03:16;;;;;;;19.26;17.75;;;;;;;6.53;77.24;101793.09;458242;116;922475;-79
2023/01/03 00:04:18;;;;;;;19.61;17.87;;;;;;;6.55;77.22;101796.50;458089;114;922221;-79
2023/01/03 00:05:21;;;;;;;19.33;17.88;;;;;;;6.57;77.17;101800.73;458071;116;922480;-77
2023/01/03 00:06:28;;;;;;;18.59;17.19;;;;;;;6.58;77.14;101790.75;458210;114;922348;-78
2023/01/03 00:07:34;;;;;;;18.30;17.01;;;;;;;6.58;77.07;101790.75;457909;116;922222;-77
2023/01/03 00:08:37;;;;;;;18.27;16.96;;;;;;;6.58;77.10;101780.77;457816;116;922366;-77
2023/01/03 00:09:41;;;;;;;18.51;17.18;;;;;;;6.58;77.08;101786.19;458056;116;922869;-78
2023/01/03 00:10:44;;;;;;;19.34;17.89;;;;;;;6.58;76.97;101778.05;458056;115;922205;-78
2023/01/03 00:13:10;;;;;;;18.78;17.47;;;;;;;6.57;76.99;101778.20;457623;116;923079;-78
2023/01/03 00:14:16;;;;;;;18.77;17.32;;;;;;;6.56;77.05;101776.53;457487;114;922685;-78
2023/01/03 00:15:19;;;;;;;19.18;17.77;;;;;;;6.56;77.12;101777.34;457468;116;923072;-78
2023/01/03 00:16:23;;;;;;;19.80;18.35;;;;;;;6.56;77.03;101779.23;457716;115;922480;-78
2023/01/03 00:17:27;;;;;;;19.93;18.32;;;;;;;6.56;77.07;101781.95;457699;116;922606;-78
2023/01/03 00:18:30;;;;;;;19.72;18.09;;;;;;;6.56;77.08;101781.95;457320;116;922509;-79
2023/01/03 00:19:36;;;;;;;20.44;18.88;;;;;;;6.56;77.06;101771.11;449809;118;922513;-78
2023/01/03 00:20:40;;;;;;;19.88;18.18;;;;;;;6.55;77.02;101778.39;449616;118;922522;-79
2023/01/03 00:21:43;;;;;;;19.48;17.98;;;;;;;6.56;77.01;101774.64;449715;116;922811;-78
2023/01/03 00:22:47;;;;;;;19.09;17.57;;;;;;;6.56;76.96;101762.98;449797;118;922628;-79
2023/01/03 00:23:50;;;;;;;19.75;18.21;;;;;;;6.56;76.83;101760.27;452560;114;922594;-79
2023/01/03 00:24:53;;;;;;;19.84;18.38;;;;;;;6.56;76.74;101761.09;457575;116;930509;-77
2023/01/03 00:25:56;;;;;;;19.80;18.21;;;;;;;6.56;76.64;101765.69;457673;116;922558;-78
2023/01/03 00:27:00;;;;;;;19.80;18.30;;;;;;;6.54;76.53;101770.41;457548;114;922548;-80
2023/01/03 00:28:03;;;;;;;19.79;18.11;;;;;;;6.52;76.60;101770.56;450677;117;922487;-79
2023/01/03 00:29:08;;;;;;;19.35;17.83;;;;;;;6.51;76.61;101771.56;450813;116;922930;-79
2023/01/03 00:30:13;;;;;;;20.02;18.18;;;;;;;6.49;76.48;101770.89;457380;116;930482;-78
2023/01/03 00:31:16;;;;;;;20.80;19.06;;;;;;;6.48;76.50;101765.63;457525;114;922449;-79
2023/01/03 00:32:20;;;;;;;20.44;18.90;;;;;;;6.47;76.57;101775.61;457699;116;922802;-78
2023/01/03 00:33:23;;;;;;;20.40;18.91;;;;;;;6.47;76.62;101772.05;457600;115;922965;-78
2023/01/03 00:34:27;;;;;;;20.86;19.26;;;;;;;6.48;76.83;101768.33;457062;116;930409;-78
2023/01/03 00:35:30;;;;;;;19.93;18.37;;;;;;;6.50;76.80;101769.03;456610;114;923457;-78
2023/01/03 00:36:35;;;;;;;20.39;18.69;;;;;;;6.50;76.86;101766.33;455819;116;930482;-79
2023/01/03 00:37:39;;;;;;;21.01;19.42;;;;;;;6.51;76.81;101770.71;455768;116;922783;-79
2023/01/03 00:38:43;;;;;;;21.17;19.57;;;;;;;6.51;76.76;101765.29;455870;114;922415;-79
2023/01/03 00:39:46;;;;;;;20.11;18.54;;;;;;;6.50;76.60;101766.33;446877;118;922409;-78
2023/01/03 00:40:49;;;;;;;20.61;19.09;;;;;;;6.49;76.53;101760.05;446931;118;931017;-78
2023/01/03 00:41:53;;;;;;;19.06;17.62;;;;;;;6.50;76.64;101766.33;438323;121;922949;-78
2023/01/03 00:44:18;;;;;;;19.15;17.74;;;;;;;6.50;76.68;101760.91;446562;116;922852;-79
2023/01/03 00:45:21;;;;;;;19.56;18.09;;;;;;;6.50;76.64;101755.48;446926;118;922996;-79
2023/01/03 00:46:26;;;;;;;20.21;18.38;;;;;;;6.49;76.67;101759.20;437921;121;922556;-77
2023/01/03 00:47:29;;;;;;;18.96;17.57;;;;;;;6.49;76.62;101767.33;444610;119;922601;-78
2023/01/03 00:48:33;;;;;;;19.28;17.75;;;;;;;6.47;76.57;101766.63;446828;116;923516;-79
2023/01/03 00:49:36;;;;;;;18.80;17.42;;;;;;;6.47;76.66;101769.34;446796;118;922513;-78
2023/01/03 00:50:39;;;;;;;18.78;17.46;;;;;;;6.47;76.67;101761.20;438279;121;922500;-79
2023/01/03 00:51:43;;;;;;;19.41;17.77;;;;;;;6.45;76.68;101771.38;444669;119;922552;-80
2023/01/03 00:52:46;;;;;;;19.69;18.11;;;;;;;6.44;76.85;101758.83;434292;122;922539;-78
2023/01/03 00:53:52;;;;;;;18.80;17.38;;;;;;;6.43;76.94;101757.12;440176;118;923320;-77
2023/01/03 00:54:55;;;;;;;19.17;17.63;;;;;;;6.44;77.03;101750.70;440124;120;923138;-79
2023/01/03 00:56:04;;;;;;;18.01;16.52;;;;;;;6.45;77.27;101758.65;433171;120;922622;-79
2023/01/03 00:57:07;;;;;;;17.24;15.86;;;;;;;6.48;77.35;101749.37;432672;122;923068;-79
2023/01/03 00:58:10;;;;;;;17.30;15.83;;;;;;;6.49;77.33;101743.80;433041;122;922569;-78
2023/01/03 00:59:15;;;;;;;18.67;17.31;;;;;;;6.51;77.34;101747.17;438698;118;922453;-77
2023/01/03 01:00:19;;;;;;;18.02;16.63;;;;;;;6.51;77.46;101746.33;440121;120;922537;-77
2023/01/03 01:01:26;;;;;;;18.16;16.64;;;;;;;6.53;77.53;101744.31;440102;120;922559;-78
2023/01/03 01:02:30;;;;;;;17.60;16.27;;;;;;;6.53;77.52;101744.31;440117;120;922927;-79
2023/01/03 01:03:35;;;;;;;16.77;15.41;;;;;;;6.54;77.50;101736.03;440078;118;922479;-79
2023/01/03 01:04:38;;;;;;;17.62;16.17;;;;;;;6.54;77.43;101733.33;446604;118;930508;-78
2023/01/03 01:05:42;;;;;;;18.27;16.81;;;;;;;6.54;77.41;101737.89;446820;118;922556;-78
2023/01/03 01:06:48;;;;;;;18.17;16.87;;;;;;;6.54;77.46;101735.19;438233;121;922532;-79
2023/01/03 01:07:51;;;;;;;16.72;15.46;;;;;;;6.55;77.33;101739.59;446646;118;922850;-78
2023/01/03 01:08:56;;;;;;;17.54;15.84;;;;;;;6.53;77.35;101738.90;446180;118;922466;-78
2023/01/03 01:10:00;;;;;;;18.79;17.27;;;;;;;6.51;77.34;101738.20;438100;121;922560;-78
2023/01/03 01:11:03;;;;;;;17.60;16.27;;;;;;;6.50;77.38;101733.81;444644;119;922428;-78
2023/01/03 01:12:07;;;;;;;17.23;15.84;;;;;;;6.48;77.38;101730.41;434222;122;922496;-79
2023/01/03 01:13:10;;;;;;;18.39;16.82;;;;;;;6.45;77.44;101731.56;437714;121;930411;-78
2023/01/03 01:14:20;;;;;;;17.88;16.24;;;;;;;6.44;77.45;101729.03;437549;119;930534;-76
2023/01/03 01:15:24;;;;;;;16.89;15.62;;;;;;;6.44;77.60;101731.74;437785;121;922560;-78
2023/01/03 01:16:30;;;;;;;17.57;16.21;;;;;;;6.42;77.70;101736.45;437749;121;922571;-77
2023/01/03 01:17:33;;;;;;;17.16;15.78;;;;;;;6.41;77.81;101729.34;437599;121;930544;-79
2023/01/03 01:18:38;;;;;;;16.26;14.97;;;;;;;6.41;77.84;101730.19;437887;121;922593;-80
2023/01/03 01:19:42;;;;;;;17.24;16.01;;;;;;;6.42;77.99;101728.33;437677;121;922960;-79
2023/01/03 01:20:46;;;;;;;16.75;15.55;;;;;;;6.43;78.12;101730.03;437624;121;926500;-78
2023/01/03 01:21:49;;;;;;;16.33;15.16;;;;;;;6.43;78.06;101721.91;437853;121;922506;-78
2023/01/03 01:22:52;;;;;;;16.54;15.31;;;;;;;6.44;78.06;101726.33;437861;121;923013;-77
2023/01/03 01:23:56;;;;;;;15.96;14.75;;;;;;;6.43;78.13;101719.20;437657;119;923239;-79
2023/01/03 01:25:01;;;;;;;15.52;14.36;;;;;;;6.43;78.08;101721.91;437661;121;922536;-78
2023/01/03 01:26:06;;;;;;;17.18;14.95;;;;;;;6.41;78.19;101718.50;437723;121;922884;-79
2023/01/03 01:27:09;;;;;;;16.63;15.35;;;;;;;6.39;78.30;101715.97;437677;121;922860;-78
2023/01/03 01:28:12;;;;;;;16.70;15.04;;;;;;;6.40;78.36;101716.80;437885;121;922484;-78
2023/01/03 01:29:16;;;;;;;16.93;15.45;;;;;;;6.39;78.51;101713.27;446675;116;922540;-77
2023/01/03 01:30:20;;;;;;;17.02;15.61;;;;;;;6.39;78.48;101715.97;446629;118;922482;-78
2023/01/03 01:31:25;;;;;;;16.37;15.09;;;;;;;6.40;78.38;101711.37;438194;121;922500;-78
2023/01/03 01:32:30;;;;;;;16.93;15.53;;;;;;;6.39;78.42;101709.70;444508;119;922487;-79
2023/01/03 01:33:35;;;;;;;17.02;15.34;;;;;;;6.40;78.51;101708.66;433993;120;922606;-78
2023/01/03 01:34:38;;;;;;;18.38;16.81;;;;;;;6.41;78.55;101704.95;440143;120;922586;-78
2023/01/03 01:35:41;;;;;;;16.77;15.36;;;;;;;6.42;78.68;101709.37;439979;118;922473;-76
2023/01/03 01:36:45;;;;;;;16.68;15.28;;;;;;;6.42;78.64;101706.66;439433;120;922991;-77
2023/01/03 01:37:48;;;;;;;15.81;14.58;;;;;;;6.43;78.68;101708.36;439316;120;922594;-79
2023/01/03 01:39:00;;;;;;;16.39;15.18;;;;;;;6.43;78.65;101705.66;439406;118;925373;-79
2023/01/03 01:40:04;;;;;;;17.44;16.04;;;;;;;6.43;78.64;101694.81;439233;120;923315;-79
2023/01/03 01:41:07;;;;;;;18.48;15.84;;;;;;;6.42;78.69;101698.53;445382;119;922854;-78
2023/01/03 01:44:58;;;;;;;18.13;16.55;;;;;;;6.39;78.97;101685.32;435812;121;922538;-78
2023/01/03 01:46:22;;;;;;;18.79;17.24;;;;;;;6.37;79.14;101681.91;435778;121;922497;-78
2023/01/03 01:47:41;;;;;;;18.58;17.24;;;;;;;6.35;79.17;101686.63;435792;121;922489;-79
2023/01/03 01:48:45;;;;;;;18.43;16.94;;;;;;;6.33;79.25;101683.25;436411;119;923583;-79
2023/01/03 01:49:51;;;;;;;17.80;16.49;;;;;;;6.32;79.38;101678.84;445419;119;922504;-77
2023/01/03 01:50:56;;;;;;;21.57;16.89;;;;;;;6.33;79.56;101680.55;436691;121;930449;-78
2023/01/03 01:51:59;;;;;;;21.21;17.67;;;;;;;6.34;79.68;101679.54;441313;120;923027;-78
2023/01/03 01:53:06;;;;;;;19.76;17.99;;;;;;;6.33;79.74;101678.69;441361;120;922562;-77
2023/01/03 01:54:10;;;;;;;18.34;17.05;;;;;;;6.34;79.78;101674.94;441220;118;922434;-78
2023/01/03 01:55:16;;;;;;;17.56;16.22;;;;;;;6.36;79.89;101682.91;437397;121;923200;-79
2023/01/03 01:56:26;;;;;;;18.36;16.64;;;;;;;6.36;79.75;101683.77;431592;123;923005;-79
2023/01/03 01:57:30;;;;;;;18.51;16.89;;;;;;;6.35;79.89;101682.06;431618;123;923472;-78
2023/01/03 01:58:38;;;;;;;18.36;17.02;;;;;;;6.36;79.95;101674.80;432457;119;922599;-78
2023/01/03 01:59:42;;;;;;;18.73;17.03;;;;;;;6.37;79.96;101676.50;438737;121;922628;-78
2023/01/03 02:00:45;;;;;;;18.16;16.60;;;;;;;6.37;80.05;101674.64;438881;121;922829;-78
2023/01/03 02:01:51;;;;;;;18.66;16.88;;;;;;;6.39;80.11;101663.66;438861;121;922489;-77
2023/01/03 02:02:55;;;;;;;18.23;16.59;;;;;;;6.39;79.97;101666.36;438753;121;922418;-78
2023/01/03 02:04:07;;;;;;;18.08;16.71;;;;;;;6.39;79.94;101661.80;438299;119;922653;-78
2023/01/03 02:05:11;;;;;;;18.58;16.77;;;;;;;6.39;80.12;101666.36;444572;119;930463;-78
2023/01/03 02:06:16;;;;;;;17.91;16.55;;;;;;;6.39;80.07;101667.21;445386;119;922499;-78
2023/01/03 02:07:21;;;;;;;20.92;16.92;;;;;;;6.39;80.13;101666.36;436765;121;922482;-79
2023/01/03 02:08:25;;;;;;;18.23;16.81;;;;;;;6.38;80.14;101665.51;441170;120;930404;-78
2023/01/03 02:09:31;;;;;;;18.34;16.95;;;;;;;6.37;80.21;101665.66;437958;121;922898;-78
2023/01/03 02:10:51;;;;;;;18.64;16.87;;;;;;;6.35;80.13;101660.39;437874;121;922623;-79
2023/01/03 02:13:29;;;;;;;18.34;16.84;;;;;;;6.32;80.24;101652.61;436745;121;922493;-79
2023/01/03 02:14:35;;;;;;;18.84;16.55;;;;;;;6.29;80.26;101655.62;441176;120;922628;-78
2023/01/03 02:15:45;;;;;;;16.83;15.61;;;;;;;6.27;80.26;101657.66;440755;120;923415;-78
2023/01/03 02:17:08;;;;;;;19.16;17.56;;;;;;;6.23;80.40;101654.41;440193;120;922728;-79
2023/01/03 02:18:17;;;;;;;17.59;15.92;;;;;;;6.20;80.28;101662.86;441191;120;922965;-78
2023/01/03 02:19:24;;;;;;;18.56;16.90;;;;;;;6.14;80.36;101651.81;440348;118;922547;-80
2023/01/03 02:20:31;;;;;;;17.51;16.02;;;;;;;6.11;80.49;101658.41;441006;120;922537;-77
2023/01/03 02:22:08;;;;;;;19.28;17.62;;;;;;;6.10;80.57;101653.16;445237;118;922884;-80
2023/01/03 02:23:24;;;;;;;16.46;15.14;;;;;;;6.09;80.69;101657.72;436675;121;923340;-78
2023/01/03 02:24:57;;;;;;;17.45;16.07;;;;;;;6.09;80.79;101649.59;437760;121;922495;-79
2023/01/03 02:26:24;;;;;;;16.72;15.42;;;;;;;6.10;80.74;101645.03;437627;121;922416;-78
2023/01/03 02:27:37;;;;;;;15.90;14.69;;;;;;;6.09;80.83;101643.32;437877;121;922548;-79
2023/01/03 02:29:13;;;;;;;16.84;15.53;;;;;;;6.08;80.86;101641.62;435352;121;922534;-78
2023/01/03 02:30:38;;;;;;;15.38;14.25;;;;;;;6.07;80.87;101642.63;437960;121;922574;-78
2023/01/03 02:31:57;;;;;;;16.97;15.68;;;;;;;6.07;80.89;101651.59;437837;121;922535;-78
2023/01/03 02:33:23;;;;;;;16.28;15.03;;;;;;;6.06;80.94;101647.22;437673;121;922468;-78
2023/01/03 02:34:30;;;;;;;17.74;16.27;;;;;;;6.06;81.04;101643.66;444666;119;922463;-78
2023/01/03 02:35:49;;;;;;;17.30;16.03;;;;;;;6.08;81.11;101641.62;436581;121;922651;-79
2023/01/03 02:37:11;;;;;;;15.68;14.36;;;;;;;6.09;81.22;101637.91;443216;119;922512;-79
2023/01/03 02:38:36;;;;;;;16.79;15.58;;;;;;;6.11;81.17;101634.05;443206;119;922524;-79
2023/01/03 02:39:48;;;;;;;17.38;15.92;;;;;;;6.12;80.94;101621.36;435785;121;922913;-79
2023/01/03 02:41:13;;;;;;;15.63;14.33;;;;;;;6.12;80.94;101619.47;428840;123;922532;-77
2023/01/03 02:43:57;;;;;;;16.92;15.67;;;;;;;6.16;81.13;101622.73;435656;118;922597;-79
2023/01/03 02:45:22;;;;;;;16.86;15.48;;;;;;;6.19;81.06;101615.12;440212;120;922902;-79
2023/01/03 02:46:32;;;;;;;17.20;15.86;;;;;;;6.19;80.99;101615.12;440086;120;922569;-78
2023/01/03 02:47:38;;;;;;;16.58;15.37;;;;;;;6.19;80.95;101617.83;440158;120;922912;-79
2023/01/03 02:49:00;;;;;;;16.72;15.52;;;;;;;6.19;80.91;101615.12;440094;118;922605;-78
2023/01/03 02:50:07;;;;;;;18.19;16.77;;;;;;;6.15;80.48;101605.63;440213;120;922687;-78
2023/01/03 02:51:14;;;;;;;19.52;17.60;;;;;;;6.15;80.48;101605.63;440150;120;922861;-79
2023/01/03 02:52:20;;;;;;;17.68;16.24;;;;;;;6.15;80.56;101599.36;440210;120;922910;-79
2023/01/03 02:53:36;;;;;;;17.39;15.98;;;;;;;6.14;80.57;101605.78;440235;120;922512;-78
2023/01/03 02:54:56;;;;;;;17.01;15.72;;;;;;;6.25;80.54;101603.64;488389;107;925928;-78
2023/01/03 02:56:02;;;;;;;17.57;16.01;;;;;;;6.14;80.60;101592.24;467082;111;922487;-78
2023/01/03 02:57:12;;;;;;;17.31;15.78;;;;;;;6.14;80.51;101592.24;458861;115;922928;-78
2023/01/03 02:58:18;;;;;;;18.46;16.91;;;;;;;6.14;80.57;101587.68;458840;115;922667;-79
2023/01/03 02:59:25;;;;;;;18.27;16.73;;;;;;;6.15;80.67;101588.53;459106;113;922554;-79
2023/01/03 03:00:31;;;;;;;16.98;15.50;;;;;;;6.17;80.63;101583.81;458585;115;922435;-78
2023/01/03 03:01:36;;;;;;;17.44;15.99;;;;;;;6.18;80.56;101575.51;458826;115;922804;-76
2023/01/03 03:02:44;;;;;;;17.47;16.19;;;;;;;6.19;80.51;101582.63;458875;115;922494;-79
2023/01/03 03:03:48;;;;;;;16.94;15.62;;;;;;;6.19;80.57;101577.21;459015;113;922493;-78
2023/01/03 03:04:55;;;;;;;17.66;16.31;;;;;;;6.20;80.52;101570.79;458950;115;922497;-78
2023/01/03 03:06:17;;;;;;;16.86;15.56;;;;;;;6.22;80.46;101567.93;458867;115;922820;-79
2023/01/03 03:07:33;;;;;;;17.30;16.02;;;;;;;6.22;80.25;101563.36;458520;115;922466;-79
2023/01/03 03:08:36;;;;;;;16.95;15.74;;;;;;;6.22;80.25;101563.36;458843;113;922558;-80
2023/01/03 03:13:49;;;;;;;15.48;14.37;;;;;;;6.18;79.87;101551.13;458221;113;922548;-78
2023/01/03 03:14:54;;;;;;;14.77;13.72;;;;;;;6.14;79.61;101554.34;458038;116;922755;-79
2023/01/03 03:16:01;;;;;;;16.21;14.67;;;;;;;6.08;79.55;101550.42;458088;116;923079;-77
2023/01/03 03:17:07;;;;;;;16.54;15.39;;;;;;;6.02;79.31;101555.63;457913;116;922514;-78
2023/01/03 03:18:14;;;;;;;15.62;14.35;;;;;;;5.96;79.31;101562.53;458102;116;922495;-79
2023/01/03 03:25:18;;;;;;;14.99;13.84;;;;;;;5.76;79.92;101556.48;458835;115;922619;-77
2023/01/03 03:26:26;;;;;;;15.11;13.99;;;;;;;5.76;79.92;101556.48;451528;115;922865;-79
2023/01/03 03:28:56;;;;;;;14.91;13.84;;;;;;;5.75;80.04;101560.19;459372;113;922532;-78
2023/01/03 03:30:02;;;;;;;14.84;13.71;;;;;;;5.75;80.24;101552.07;458807;115;923408;-77
2023/01/03 03:31:18;;;;;;;14.69;13.66;;;;;;;5.77;80.25;101547.36;458796;115;922534;-77
2023/01/03 03:32:23;;;;;;;14.77;13.67;;;;;;;5.78;80.23;101551.77;458751;115;922825;-79
2023/01/03 03:33:29;;;;;;;13.42;12.47;;;;;;;5.78;80.15;101550.91;458882;113;922500;-77
2023/01/03 03:34:37;;;;;;;14.16;13.16;;;;;;;5.79;80.17;101548.02;458798;115;922667;-77
2023/01/03 03:35:51;;;;;;;13.83;12.73;;;;;;;5.79;80.03;101544.47;458828;115;922584;-78
2023/01/03 03:37:00;;;;;;;14.73;13.63;;;;;;;5.76;80.01;101542.09;458747;115;922458;-77
2023/01/03 03:38:06;;;;;;;13.32;12.32;;;;;;;5.76;80.01;101542.09;458810;115;922447;-78
2023/01/03 03:44:59;;;;;;;12.94;12.07;;;;;;;5.74;79.87;101544.10;464063;113;922511;-78
2023/01/03 03:45:00;;;;;;;13.19;12.21;;;;;;;5.64;79.79;101537.95;458805;115;922958;-78
2023/01/03 03:46:08;;;;;;;12.57;11.59;;;;;;;5.60;79.81;101534.73;458825;115;922849;-78
2023/01/03 03:47:17;;;;;;;12.57;11.53;;;;;;;5.55;79.93;101526.25;458832;115;922318;-78
2023/01/03 03:49:36;;;;;;;12.43;11.58;;;;;;;5.55;79.93;101526.25;458834;115;922516;-79
2023/01/03 03:49:39;;;;;;;12.66;11.63;;;;;;;5.56;80.08;101527.10;460503;114;922976;-77
2023/01/03 03:50:51;;;;;;;13.77;11.94;;;;;;;5.55;80.10;101530.81;458795;115;922797;-79
2023/01/03 03:52:04;;;;;;;12.05;11.13;;;;;;;5.65;80.17;101521.57;474483;110;947217;-78
2023/01/03 03:53:10;;;;;;;13.03;12.03;;;;;;;5.53;79.99;101528.25;465542;114;922851;-78
2023/01/03 03:54:17;;;;;;;11.61;10.64;;;;;;;5.54;80.07;101520.98;461289;114;922520;-78
2023/01/03 03:55:48;;;;;;;12.33;11.43;;;;;;;5.53;79.98;101520.14;461629;113;922738;-76
2023/01/03 03:56:54;;;;;;;12.59;11.68;;;;;;;5.53;79.96;101522.84;465527;113;922534;-78
2023/01/03 03:58:05;;;;;;;12.17;11.24;;;;;;;5.54;80.07;101518.28;465534;114;922790;-77
2023/01/03 03:59:10;;;;;;;12.96;12.02;;;;;;;5.54;80.13;101521.84;465208;114;922662;-78
2023/01/03 04:00:17;;;;;;;12.46;11.56;;;;;;;5.54;80.25;101513.73;465497;114;922769;-79
2023/01/03 04:01:21;;;;;;;10.98;10.27;;;;;;;5.54;80.16;101518.28;465531;114;922475;-78
2023/01/03 04:02:26;;;;;;;11.90;11.09;;;;;;;5.55;80.21;101514.58;465563;114;922397;-77
2023/01/03 04:03:31;;;;;;;12.72;11.82;;;;;;;5.54;80.10;101511.02;465285;114;923002;-79
2023/01/03 04:04:40;;;;;;;13.28;12.29;;;;;;;5.55;80.22;101512.72;464818;114;922902;-78
2023/01/03 04:05:47;;;;;;;12.05;11.24;;;;;;;5.56;80.12;101514.42;464772;114;922489;-79
2023/01/03 04:06:51;;;;;;;12.67;11.62;;;;;;;5.57;80.33;101513.39;464865;114;922359;-78
2023/01/03 04:07:55;;;;;;;11.54;10.71;;;;;;;5.57;80.33;101513.39;464833;114;922967;-78
2023/01/03 04:08:58;;;;;;;12.34;11.37;;;;;;;5.59;80.34;101515.95;464570;113;930236;-77
2023/01/03 04:10:01;;;;;;;11.50;10.69;;;;;;;5.59;80.20;101505.13;465784;114;922426;-78
2023/01/03 04:11:05;;;;;;;12.34;11.42;;;;;;;5.60;80.35;101501.42;465666;114;922469;-79
2023/01/03 04:12:08;;;;;;;12.04;11.14;;;;;;;5.61;80.32;101508.53;465623;114;930489;-78
2023/01/03 04:13:11;;;;;;;12.35;11.45;;;;;;;5.62;80.36;101499.41;465752;114;922962;-78
2023/01/03 04:14:15;;;;;;;11.74;10.88;;;;;;;5.63;80.47;101498.37;461240;114;922519;-78
2023/01/03 04:15:18;;;;;;;15.43;11.05;;;;;;;5.64;80.38;101494.67;460017;115;922567;-76
2023/01/03 04:16:22;;;;;;;12.05;11.15;;;;;;;5.65;80.28;101496.38;459920;115;923076;-79
2023/01/03 04:17:25;;;;;;;11.53;10.72;;;;;;;5.64;80.31;101500.93;460080;115;922478;-79
2023/01/03 04:18:28;;;;;;;12.03;10.77;;;;;;;5.62;80.27;101500.27;460206;114;922930;-77
2023/01/03 04:19:31;;;;;;;12.14;11.24;;;;;;;5.61;80.22;101490.45;465558;114;922846;-78
2023/01/03 04:20:35;;;;;;;12.20;11.35;;;;;;;5.61;80.26;101492.30;465746;114;922930;-78
2023/01/03 04:21:38;;;;;;;11.34;10.56;;;;;;;5.62;80.49;101496.70;465760;113;922606;-78
2023/01/03 04:22:41;;;;;;;11.60;10.80;;;;;;;5.63;80.41;101490.27;465805;114;922573;-78
2023/01/03 04:23:44;;;;;;;10.99;10.19;;;;;;;5.63;80.42;101503.79;465194;114;922859;-78
2023/01/03 04:24:47;;;;;;;11.73;10.96;;;;;;;5.62;80.35;101496.70;464834;114;922747;-78
2023/01/03 04:25:51;;;;;;;11.57;10.64;;;;;;;5.60;80.30;101504.97;464849;114;922507;-77
2023/01/03 04:26:54;;;;;;;11.08;10.13;;;;;;;5.59;80.27;101499.72;464813;114;922642;-77
2023/01/03 04:27:59;;;;;;;11.94;11.03;;;;;;;5.57;80.35;101501.75;464848;114;922632;-79
2023/01/03 04:29:02;;;;;;;11.79;10.96;;;;;;;5.55;80.32;101498.34;464997;113;922456;-77
2023/01/03 04:30:06;;;;;;;11.04;10.32;;;;;;;5.54;80.38;101499.34;465701;114;922372;-78
2023/01/03 04:31:09;;;;;;;10.76;10.06;;;;;;;5.52;80.51;101502.20;465601;114;922637;-79
2023/01/03 04:32:12;;;;;;;10.79;9.94;;;;;;;5.53;80.50;101505.76;465617;114;923164;-78
2023/01/03 04:33:15;;;;;;;11.49;10.67;;;;;;;5.53;80.62;101503.05;465788;114;922446;-78
2023/01/03 04:34:19;;;;;;;10.46;9.74;;;;;;;5.53;80.55;101503.05;459226;114;922440;-79
2023/01/03 04:35:22;;;;;;;11.25;10.39;;;;;;;5.54;80.76;101497.50;457675;116;922428;-78
2023/01/03 04:36:26;;;;;;;11.36;10.55;;;;;;;5.55;80.83;101493.79;457532;114;922691;-77
2023/01/03 04:37:29;;;;;;;11.41;10.58;;;;;;;5.57;80.80;101499.05;457680;116;922509;-78
2023/01/03 04:38:32;;;;;;;11.67;10.76;;;;;;;5.58;80.81;101492.60;458000;114;922504;-78
2023/01/03 04:39:35;;;;;;;11.08;10.31;;;;;;;5.59;80.94;101495.16;457525;116;922486;-78
2023/01/03 04:40:39;;;;;;;12.04;11.15;;;;;;;5.61;80.86;101497.70;457409;116;922517;-79
2023/01/03 04:41:42;;;;;;;11.09;10.19;;;;;;;5.61;80.85;101500.41;457453;116;922608;-78
2023/01/03 04:44:08;;;;;;;11.07;10.11;;;;;;;5.62;80.84;101491.30;462859;114;922553;-77
2023/01/03 04:45:11;;;;;;;11.70;10.70;;;;;;;5.64;80.94;101497.38;466246;114;922457;-78
2023/01/03 04:46:15;;;;;;;11.33;10.49;;;;;;;5.65;81.07;101488.25;466251;114;922510;-79
2023/01/03 04:47:19;;;;;;;11.89;10.82;;;;;;;5.65;80.96;101486.40;466349;114;922469;-77
2023/01/03 04:48:22;;;;;;;11.36;10.53;;;;;;;5.67;81.00;101491.66;466284;114;922853;-77
2023/01/03 04:49:25;;;;;;;11.59;10.77;;;;;;;5.67;81.03;101487.10;465263;114;922401;-78
2023/01/03 04:50:29;;;;;;;11.87;10.90;;;;;;;5.69;81.02;101490.47;465748;114;922671;-78
2023/01/03 04:51:33;;;;;;;11.87;10.91;;;;;;;5.69;81.00;101485.06;465543;113;922800;-79
2023/01/03 04:52:36;;;;;;;11.74;10.84;;;;;;;5.70;81.09;101485.91;465688;114;922935;-78
2023/01/03 04:53:40;;;;;;;11.06;10.13;;;;;;;5.70;81.09;101480.50;464067;114;930259;-78
2023/01/03 04:54:43;;;;;;;11.25;10.22;;;;;;;5.72;81.15;101479.34;457487;116;922622;-78
2023/01/03 04:55:47;;;;;;;12.44;11.50;;;;;;;5.74;81.11;101484.57;459137;113;922508;-78
2023/01/03 04:56:51;;;;;;;10.96;10.18;;;;;;;5.74;81.06;101471.05;459365;115;922601;-79
2023/01/03 04:57:54;;;;;;;11.22;10.41;;;;;;;5.76;81.07;101479.86;459560;115;929974;-78
2023/01/03 04:58:58;;;;;;;11.58;10.73;;;;;;;5.75;81.14;101487.13;462445;114;924020;-77
2023/01/03 05:00:01;;;;;;;12.71;11.62;;;;;;;5.75;81.10;101476.30;465640;114;923110;-78
2023/01/03 05:01:06;;;;;;;12.02;11.06;;;;;;;5.76;81.09;101475.30;465642;114;923028;-77
2023/01/03 05:02:10;;;;;;;11.11;10.30;;;;;;;5.76;81.23;101480.71;465505;114;922651;-78
2023/01/03 05:03:14;;;;;;;11.66;10.86;;;;;;;5.77;81.25;101481.56;465586;114;923053;-77
2023/01/03 05:04:17;;;;;;;12.31;11.41;;;;;;;5.77;81.19;101485.12;459525;114;922882;-78
2023/01/03 05:05:20;;;;;;;12.64;10.74;;;;;;;5.77;81.10;101485.12;457597;116;922752;-77
2023/01/03 05:06:23;;;;;;;11.73;10.75;;;;;;;5.78;81.20;101485.97;457562;116;922533;-78
2023/01/03 05:07:27;;;;;;;11.47;10.65;;;;;;;5.77;81.13;101481.56;457588;116;923397;-79
2023/01/03 05:08:30;;;;;;;11.55;10.66;;;;;;;5.78;81.23;101477.84;457721;114;922432;-78
2023/01/03 05:09:34;;;;;;;11.86;10.96;;;;;;;5.79;81.20;101482.23;457557;116;922779;-79
2023/01/03 05:10:38;;;;;;;12.10;11.04;;;;;;;5.79;81.28;101480.38;457497;116;922972;-79
2023/01/03 05:11:42;;;;;;;12.09;11.14;;;;;;;5.79;81.19;101479.52;457363;115;922681;-78
2023/01/03 05:12:58;;;;;;;12.04;10.68;;;;;;;5.80;81.36;101475.81;457517;116;930133;-79
2023/01/03 05:13:50;;;;;;;12.26;11.36;;;;;;;5.82;81.42;101479.22;457525;114;922746;-78
2023/01/03 05:14:53;;;;;;;12.16;11.26;;;;;;;5.84;81.37;101483.44;465648;114;922364;-77
2023/01/03 05:15:56;;;;;;;12.12;11.27;;;;;;;5.86;81.29;101478.72;465647;114;922562;-79
2023/01/03 05:16:59;;;;;;;11.36;10.46;;;;;;;5.86;81.24;101480.58;465593;113;923508;-79
2023/01/03 05:18:03;;;;;;;11.79;10.84;;;;;;;5.85;81.07;101481.58;465549;114;923038;-79
2023/01/03 05:19:07;;;;;;;11.74;10.84;;;;;;;5.83;81.14;101476.35;464814;114;930838;-79
2023/01/03 05:25:50;;;;;;;11.64;10.77;;;;;;;5.79;81.16;101474.95;466824;112;921938;-78
2023/01/03 05:26:53;;;;;;;12.46;11.48;;;;;;;5.80;81.38;101473.11;466872;114;922102;-78
2023/01/03 05:27:57;;;;;;;11.86;10.95;;;;;;;5.83;81.44;101470.09;466993;112;922190;-79
2023/01/03 05:29:00;;;;;;;11.66;10.56;;;;;;;5.83;81.43;101465.53;466729;113;922183;-77
2023/01/03 05:30:05;;;;;;;11.99;11.04;;;;;;;5.84;81.42;101475.31;466776;114;922282;-77
2023/01/03 05:31:08;;;;;;;12.27;11.34;;;;;;;5.85;81.41;101476.17;466851;112;922634;-79
2023/01/03 05:32:11;;;;;;;11.52;10.70;;;;;;;5.86;81.43;101469.75;467071;114;922109;-78
2023/01/03 05:33:14;;;;;;;12.49;11.34;;;;;;;5.88;81.49;101472.34;467057;112;922617;-79
2023/01/03 05:34:17;;;;;;;12.34;11.40;;;;;;;5.90;81.59;101465.73;466320;109;922223;-79